Time;durP1;ratioP1;P1;durP2;ratioP2;P2;SDS_P1;SDS_P2;PMS_P1;PMS_P2;Temp;Humidity;BMP_temperature;BMP_pressure;BME280_temperature;BME280_humidity;BME280_pressure;Samples;Min_cycle;Max_cycle;Signal;HPM_P1;HPM_P2
2022/12/19 00:01:36;;;;;;;;;;;;;;;12.47;70.92;103514.66;5048224;28;20459;-82
2022/12/19 00:04:03;;;;;;;;;;;;;;;12.44;70.91;103512.66;5043300;28;20392;-83
2022/12/19 00:06:29;;;;;;;;;;;;;;;12.43;70.88;103518.69;5042131;28;19952;-82
2022/12/19 00:08:55;;;;;;;;;;;;;;;12.42;70.88;103530.88;5037923;28;20022;-82
2022/12/19 00:11:22;;;;;;;;;;;;;;;12.35;71.29;103511.84;5040926;28;19913;-82
2022/12/19 00:13:47;;;;;;;;;;;;;;;12.42;70.63;103507.31;5026999;28;20000;-82
2022/12/19 00:16:14;;;;;;;;;;;;;;;12.41;70.74;103507.16;5035740;28;19952;-82
2022/12/19 00:18:40;;;;;;;;;;;;;;;12.42;70.77;103512.53;5032157;28;20374;-81
2022/12/19 00:21:05;;;;;;;;;;;;;;;12.41;70.74;103518.53;5032305;28;19913;-82
2022/12/19 00:23:32;;;;;;;;;;;;;;;12.36;70.91;103514.59;5048599;28;19921;-82
2022/12/19 00:26:11;;;;;;;;;;;;;;;12.39;70.93;103519.19;5046660;28;20004;-82
2022/12/19 00:28:36;;;;;;;;;;;;;;;12.37;71.40;103531.25;5048540;28;19919;-82
2022/12/19 00:31:02;;;;;;;;;;;;;;;12.35;70.98;103527.56;5042684;28;19913;-82
2022/12/19 00:33:27;;;;;;;;;;;;;;;12.35;70.56;103530.19;5045883;28;19917;-81
2022/12/19 00:35:56;;;;;;;;;;;;;;;12.35;70.68;103536.34;5038436;28;20016;-81
2022/12/19 00:38:22;;;;;;;;;;;;;;;12.35;70.85;103532.81;5030791;28;20295;-81
2022/12/19 00:40:47;;;;;;;;;;;;;;;12.33;70.42;103537.91;5033891;28;19924;-82
2022/12/19 00:43:12;;;;;;;;;;;;;;;12.35;70.66;103544.19;5049516;28;19925;-82
2022/12/19 00:45:38;;;;;;;;;;;;;;;12.33;70.59;103542.22;5032132;28;20374;-82
2022/12/19 00:48:04;;;;;;;;;;;;;;;12.34;70.79;103546.66;5042642;28;20381;-82
2022/12/19 00:50:30;;;;;;;;;;;;;;;12.33;70.31;103551.00;5047806;28;19913;-82
2022/12/19 00:52:55;;;;;;;;;;;;;;;12.31;70.67;103552.56;5050725;28;19921;-82
2022/12/19 00:55:20;;;;;;;;;;;;;;;12.32;70.87;103549.19;5048642;28;20412;-82
2022/12/19 00:57:46;;;;;;;;;;;;;;;12.35;70.56;103552.06;5048928;28;20435;-82
2022/12/19 01:00:12;;;;;;;;;;;;;;;12.31;70.37;103554.25;5046073;28;20370;-81
2022/12/19 01:02:37;;;;;;;;;;;;;;;12.25;70.13;103552.00;5047454;28;19921;-82
2022/12/19 01:05:03;;;;;;;;;;;;;;;12.26;70.49;103553.84;5044171;28;20299;-82
2022/12/19 01:07:28;;;;;;;;;;;;;;;12.28;70.75;103540.91;5041317;28;19920;-82
2022/12/19 01:09:53;;;;;;;;;;;;;;;12.27;70.42;103541.66;5046652;28;19913;-81
2022/12/19 01:15:03;;;;;;;;;;;;;;;12.28;70.54;103546.13;5048801;28;19970;-82
2022/12/19 01:17:28;;;;;;;;;;;;;;;12.25;70.67;103541.50;5043763;28;19914;-82
2022/12/19 01:19:54;;;;;;;;;;;;;;;12.23;70.59;103545.69;5046640;28;19921;-82
2022/12/19 01:22:19;;;;;;;;;;;;;;;12.23;70.68;103545.69;5043897;28;20428;-82
2022/12/19 01:24:45;;;;;;;;;;;;;;;12.22;70.44;103539.53;5044584;28;20314;-82
2022/12/19 01:27:10;;;;;;;;;;;;;;;12.21;70.85;103535.09;5042947;28;19917;-82
2022/12/19 01:29:35;;;;;;;;;;;;;;;12.22;70.65;103538.63;5042258;28;20004;-82
2022/12/19 01:32:01;;;;;;;;;;;;;;;12.21;70.99;103532.47;5051028;28;20383;-82
2022/12/19 01:34:26;;;;;;;;;;;;;;;12.20;70.16;103542.81;5042043;28;19920;-82
2022/12/19 01:36:52;;;;;;;;;;;;;;;12.20;70.62;103545.41;5038334;28;20463;-82
2022/12/19 01:39:17;;;;;;;;;;;;;;;12.14;70.76;103553.63;5036167;28;19921;-82
2022/12/19 01:41:43;;;;;;;;;;;;;;;12.18;70.71;103542.66;5037044;28;20393;-82
2022/12/19 01:44:08;;;;;;;;;;;;;;;12.17;70.59;103545.13;5043968;28;19921;-82
2022/12/19 01:46:50;;;;;;;;;;;;;;;12.20;70.39;103556.81;5036890;28;20308;-82
2022/12/19 01:49:18;;;;;;;;;;;;;;;12.13;70.66;103562.28;5018023;28;19917;-82
2022/12/19 01:51:44;;;;;;;;;;;;;;;12.13;70.65;103551.78;5034931;28;19920;-82
2022/12/19 01:54:11;;;;;;;;;;;;;;;12.15;70.29;103554.53;5052523;28;19913;-82
2022/12/19 01:56:41;;;;;;;;;;;;;;;12.14;69.97;103561.47;5049681;28;19913;-82
2022/12/19 01:59:08;;;;;;;;;;;;;;;12.12;69.83;103562.13;5039968;28;19913;-82
2022/12/19 02:01:34;;;;;;;;;;;;;;;12.10;70.21;103566.31;5047489;28;20000;-82
2022/12/19 02:03:59;;;;;;;;;;;;;;;12.08;69.90;103560.91;5045590;28;20003;-82
2022/12/19 02:06:25;;;;;;;;;;;;;;;12.10;70.28;103563.69;5025605;28;20399;-82
2022/12/19 02:08:50;;;;;;;;;;;;;;;12.12;70.21;103564.75;5043571;28;19921;-82
2022/12/19 02:11:16;;;;;;;;;;;;;;;12.08;70.16;103557.38;5043242;28;19917;-82
2022/12/19 02:13:41;;;;;;;;;;;;;;;12.08;70.21;103560.91;5039042;28;19917;-81
2022/12/19 02:16:19;;;;;;;;;;;;;;;12.07;70.26;103563.41;5039825;28;19927;-82
2022/12/19 02:18:50;;;;;;;;;;;;;;;12.10;69.38;103556.75;5035648;28;19995;-82
2022/12/19 02:21:21;;;;;;;;;;;;;;;12.07;69.78;103551.22;5033825;28;20008;-82
2022/12/19 02:24:02;;;;;;;;;;;;;;;12.04;69.83;103561.41;5035949;28;20405;-82
2022/12/19 02:26:45;;;;;;;;;;;;;;;12.00;70.06;103557.59;5040270;28;19919;-82
2022/12/19 02:29:11;;;;;;;;;;;;;;;12.01;69.77;103562.03;5050617;28;20313;-82
2022/12/19 02:31:45;;;;;;;;;;;;;;;12.05;70.10;103571.13;5050188;28;19916;-82
2022/12/19 02:34:17;;;;;;;;;;;;;;;12.06;70.14;103578.19;5043715;28;19917;-82
2022/12/19 02:36:47;;;;;;;;;;;;;;;12.04;70.01;103573.59;5047515;28;19916;-82
2022/12/19 02:39:25;;;;;;;;;;;;;;;12.00;69.97;103569.75;5041371;28;19932;-82
2022/12/19 02:41:52;;;;;;;;;;;;;;;11.92;70.28;103584.78;5044240;28;19921;-82
2022/12/19 02:44:19;;;;;;;;;;;;;;;11.96;69.08;103584.28;5041443;28;19917;-81
2022/12/19 02:46:45;;;;;;;;;;;;;;;11.98;69.74;103600.13;5035368;28;20372;-82
2022/12/19 02:49:10;;;;;;;;;;;;;;;11.96;69.93;103589.53;5032325;28;20420;-81
2022/12/19 02:51:36;;;;;;;;;;;;;;;11.97;69.75;103585.19;5034120;28;19975;-81
2022/12/19 02:54:02;;;;;;;;;;;;;;;11.96;69.40;103589.53;5052041;28;20378;-82
2022/12/19 02:56:50;;;;;;;;;;;;;;;11.94;69.67;103590.16;5049747;28;20386;-81
2022/12/19 02:59:19;;;;;;;;;;;;;;;11.95;69.59;103594.59;5035360;28;19943;-83
2022/12/19 03:01:49;;;;;;;;;;;;;;;11.90;69.91;103590.66;5045585;28;19936;-82
2022/12/19 03:04:16;;;;;;;;;;;;;;;11.88;69.53;103589.56;5038646;28;19985;-82
2022/12/19 03:06:51;;;;;;;;;;;;;;;11.90;69.80;103598.50;5045381;28;19970;-81
2022/12/19 03:09:23;;;;;;;;;;;;;;;11.92;69.67;103610.06;5037924;28;20290;-83
2022/12/19 03:11:48;;;;;;;;;;;;;;;11.90;69.83;103609.91;5039816;28;20013;-83
2022/12/19 03:14:15;;;;;;;;;;;;;;;11.85;70.28;103616.34;5041524;28;20413;-82
2022/12/19 03:16:40;;;;;;;;;;;;;;;11.85;69.86;103625.91;5035073;28;20317;-81
2022/12/19 03:19:09;;;;;;;;;;;;;;;11.87;69.93;103626.97;5035539;28;19921;-82
2022/12/19 03:21:45;;;;;;;;;;;;;;;11.89;69.64;103638.53;5032695;28;19924;-82
2022/12/19 03:24:11;;;;;;;;;;;;;;;11.81;69.04;103637.81;5036031;28;19972;-82
2022/12/19 03:26:42;;;;;;;;;;;;;;;11.84;70.00;103637.16;5050410;28;19913;-82
2022/12/19 03:29:12;;;;;;;;;;;;;;;11.81;69.46;103637.81;5045919;28;19913;-82
2022/12/19 03:31:37;;;;;;;;;;;;;;;11.80;69.00;103633.31;5037469;28;19913;-82
2022/12/19 03:34:15;;;;;;;;;;;;;;;11.85;68.94;103632.06;5047694;28;20326;-83
2022/12/19 03:36:45;;;;;;;;;;;;;;;11.82;69.26;103632.69;5039557;28;19921;-82
2022/12/19 03:39:10;;;;;;;;;;;;;;;11.82;69.24;103645.78;5032825;28;19921;-83
2022/12/19 03:44:20;;;;;;;;;;;;;;;11.80;69.77;103654.28;5036236;28;19983;-82
2022/12/19 03:46:47;;;;;;;;;;;;;;;11.81;69.90;103653.53;5036635;28;19913;-82
2022/12/19 03:49:13;;;;;;;;;;;;;;;11.80;69.41;103651.66;5032322;28;19920;-83
2022/12/19 03:51:51;;;;;;;;;;;;;;;11.80;69.33;103660.44;5034505;28;19920;-82
2022/12/19 03:54:18;;;;;;;;;;;;;;;11.77;69.77;103656.63;5040961;28;20444;-82
2022/12/19 03:56:49;;;;;;;;;;;;;;;11.77;69.56;103656.63;5046650;28;19956;-83
2022/12/19 03:59:15;;;;;;;;;;;;;;;11.74;69.18;103666.78;5048795;28;19913;-81
2022/12/19 04:01:41;;;;;;;;;;;;;;;11.67;68.92;103666.97;5046356;28;19916;-83
2022/12/19 04:04:06;;;;;;;;;;;;;;;11.69;69.37;103674.19;5045288;28;19913;-83
2022/12/19 04:06:32;;;;;;;;;;;;;;;11.67;69.68;103670.50;5041183;28;19974;-82
2022/12/19 04:08:57;;;;;;;;;;;;;;;11.69;69.61;103676.81;5024359;28;19988;-82
2022/12/19 04:11:23;;;;;;;;;;;;;;;11.59;69.39;103661.00;5040291;28;19920;-82
2022/12/19 04:13:50;;;;;;;;;;;;;;;11.69;68.70;103683.75;5041293;28;20078;-82
2022/12/19 04:16:34;;;;;;;;;;;;;;;11.58;69.13;103686.25;5036684;28;19948;-83
2022/12/19 04:19:03;;;;;;;;;;;;;;;11.61;69.63;103688.25;5036568;28;19913;-82
2022/12/19 04:21:30;;;;;;;;;;;;;;;11.58;69.25;103688.88;5032221;28;20007;-83
2022/12/19 04:23:57;;;;;;;;;;;;;;;11.57;69.25;103699.19;5038529;28;19935;-82
2022/12/19 04:26:22;;;;;;;;;;;;;;;11.61;69.08;103694.38;5036987;28;19963;-82
2022/12/19 04:28:52;;;;;;;;;;;;;;;11.60;69.65;103699.50;5047452;28;19955;-82
2022/12/19 04:31:17;;;;;;;;;;;;;;;11.64;69.22;103701.66;5047487;28;19971;-82
2022/12/19 04:33:43;;;;;;;;;;;;;;;11.57;69.03;103705.34;5045746;28;19960;-82
2022/12/19 04:36:09;;;;;;;;;;;;;;;11.61;69.69;103702.25;5043464;28;20424;-82
2022/12/19 04:38:34;;;;;;;;;;;;;;;11.55;69.81;103711.19;5042239;28;20386;-81
2022/12/19 04:40:59;;;;;;;;;;;;;;;11.57;69.17;103713.19;5039391;28;20305;-83
2022/12/19 04:43:25;;;;;;;;;;;;;;;11.55;69.80;103713.81;5039963;28;19924;-82
2022/12/19 04:45:50;;;;;;;;;;;;;;;11.59;69.38;103719.50;5033739;28;19963;-82
2022/12/19 04:48:15;;;;;;;;;;;;;;;11.58;69.46;103722.00;5033974;28;20314;-82
2022/12/19 04:50:41;;;;;;;;;;;;;;;11.56;69.20;103715.69;5031621;28;19923;-82
2022/12/19 04:53:06;;;;;;;;;;;;;;;11.56;69.63;103720.91;5048375;28;20408;-82
2022/12/19 04:55:32;;;;;;;;;;;;;;;11.55;69.18;103717.34;5048090;28;19995;-82
2022/12/19 04:57:57;;;;;;;;;;;;;;;11.56;69.51;103721.81;5047403;28;19919;-83
2022/12/19 05:00:23;;;;;;;;;;;;;;;11.56;69.83;103727.06;5042911;28;20019;-83
2022/12/19 05:02:48;;;;;;;;;;;;;;;11.49;68.94;103724.59;5048679;28;19983;-82
2022/12/19 05:05:13;;;;;;;;;;;;;;;11.49;70.04;103732.44;5042288;28;19917;-82
2022/12/19 05:07:39;;;;;;;;;;;;;;;11.51;69.71;103733.53;5044278;28;19913;-82
2022/12/19 05:10:05;;;;;;;;;;;;;;;11.49;69.67;103742.91;5037160;28;19943;-82
2022/12/19 05:12:30;;;;;;;;;;;;;;;11.47;69.23;103739.25;5046688;28;19920;-83
2022/12/19 05:14:56;;;;;;;;;;;;;;;11.58;69.39;103746.47;5033240;28;19913;-82
2022/12/19 05:17:21;;;;;;;;;;;;;;;11.48;69.31;103742.78;5035768;28;20378;-82
2022/12/19 05:19:47;;;;;;;;;;;;;;;11.40;69.29;103749.88;5032203;28;19917;-82
2022/12/19 05:22:12;;;;;;;;;;;;;;;11.41;69.29;103750.03;5037139;28;20334;-82
2022/12/19 05:24:38;;;;;;;;;;;;;;;11.45;69.53;103745.09;5048276;28;19947;-82
2022/12/19 05:27:03;;;;;;;;;;;;;;;11.45;69.58;103750.31;5048912;28;20404;-82
2022/12/19 05:29:28;;;;;;;;;;;;;;;11.48;69.28;103754.19;5045964;28;19955;-82
2022/12/19 05:31:54;;;;;;;;;;;;;;;11.41;69.16;103754.34;5046469;28;20408;-82
2022/12/19 05:34:19;;;;;;;;;;;;;;;11.45;69.38;103753.88;5041553;28;19917;-81
2022/12/19 05:36:45;;;;;;;;;;;;;;;11.45;69.46;103758.19;5049514;28;20554;-82
2022/12/19 05:39:10;;;;;;;;;;;;;;;11.41;69.32;103773.59;5035995;28;20433;-82
2022/12/19 05:41:36;;;;;;;;;;;;;;;11.38;68.98;103768.03;5041740;28;19917;-82
2022/12/19 05:44:01;;;;;;;;;;;;;;;11.40;68.95;103784.81;5034593;28;20015;-82
2022/12/19 05:46:27;;;;;;;;;;;;;;;11.40;69.17;103783.91;5034767;28;20392;-81
2022/12/19 05:48:52;;;;;;;;;;;;;;;11.44;69.29;103783.44;5033044;28;19921;-80
2022/12/19 05:51:18;;;;;;;;;;;;;;;11.36;69.57;103784.38;5031471;28;19913;-81
2022/12/19 05:53:43;;;;;;;;;;;;;;;11.44;69.15;103793.00;5047851;28;20012;-80
2022/12/19 05:56:10;;;;;;;;;;;;;;;11.37;69.37;103789.75;5048239;28;19920;-81
2022/12/19 05:58:36;;;;;;;;;;;;;;;11.38;69.89;103795.91;5044822;28;19932;-80
2022/12/19 06:01:11;;;;;;;;;;;;;;;11.33;69.25;103800.69;5046907;28;19917;-81
2022/12/19 06:03:37;;;;;;;;;;;;;;;11.32;69.09;103806.69;5035590;28;19917;-83
2022/12/19 06:06:07;;;;;;;;;;;;;;;11.37;69.16;103817.63;5048324;28;20401;-80
2022/12/19 06:08:32;;;;;;;;;;;;;;;11.34;69.02;103818.22;5045852;28;20313;-80
2022/12/19 06:10:59;;;;;;;;;;;;;;;11.30;69.42;103817.75;5037762;28;19923;-84
2022/12/19 06:13:24;;;;;;;;;;;;;;;11.30;69.41;103818.72;5040086;28;19920;-81
2022/12/19 06:15:50;;;;;;;;;;;;;;;11.16;69.15;103819.00;5038702;28;19917;-83
2022/12/19 06:18:15;;;;;;;;;;;;;;;11.20;68.91;103819.47;5035845;28;20275;-82
2022/12/19 06:20:41;;;;;;;;;;;;;;;11.27;69.12;103835.78;5048596;28;19920;-81
2022/12/19 06:23:08;;;;;;;;;;;;;;;11.20;69.18;103827.31;5045430;28;20386;-83
2022/12/19 06:25:33;;;;;;;;;;;;;;;11.25;69.22;103835.63;5036975;28;19921;-83
2022/12/19 06:27:59;;;;;;;;;;;;;;;11.23;69.07;103831.00;5034387;28;20021;-83
2022/12/19 06:30:24;;;;;;;;;;;;;;;11.16;69.22;103842.56;5037774;28;20571;-82
2022/12/19 06:32:50;;;;;;;;;;;;;;;11.18;68.44;103841.03;5049949;28;20444;-82
2022/12/19 06:35:15;;;;;;;;;;;;;;;11.18;69.01;103834.09;5037807;28;19925;-83
2022/12/19 06:37:41;;;;;;;;;;;;;;;11.08;68.83;103843.47;5046273;28;20579;-83
2022/12/19 06:40:06;;;;;;;;;;;;;;;11.15;69.06;103851.16;5037826;28;20639;-83
2022/12/19 06:42:32;;;;;;;;;;;;;;;11.18;68.49;103855.03;5041588;28;20393;-84
2022/12/19 06:44:57;;;;;;;;;;;;;;;11.11;68.74;103859.47;5034808;28;19913;-83
2022/12/19 06:47:23;;;;;;;;;;;;;;;11.16;68.65;103869.63;5042213;28;19920;-83
2022/12/19 06:49:49;;;;;;;;;;;;;;;11.09;68.77;103868.84;5040287;28;20010;-83
2022/12/19 06:52:14;;;;;;;;;;;;;;;11.10;69.41;103871.63;5046317;28;20415;-83
2022/12/19 06:54:40;;;;;;;;;;;;;;;11.14;69.38;103868.56;5033372;28;19927;-82
2022/12/19 06:57:06;;;;;;;;;;;;;;;11.12;68.02;103869.16;5044245;28;20413;-83
2022/12/19 06:59:32;;;;;;;;;;;;;;;11.04;68.67;103872.69;5045606;28;19913;-83
2022/12/19 07:02:02;;;;;;;;;;;;;;;10.98;68.95;103887.00;5035478;28;20406;-83
2022/12/19 07:04:29;;;;;;;;;;;;;;;11.04;69.64;103891.91;5040131;28;19978;-82
2022/12/19 07:06:54;;;;;;;;;;;;;;;11.13;68.75;103879.81;5035898;28;19924;-83
2022/12/19 07:09:21;;;;;;;;;;;;;;;11.14;68.68;103897.31;5037090;28;19924;-83
2022/12/19 07:11:46;;;;;;;;;;;;;;;11.14;68.55;103902.56;5048766;28;19912;-83
2022/12/19 07:14:12;;;;;;;;;;;;;;;11.02;69.04;103896.06;5041674;28;19917;-82
2022/12/19 07:16:37;;;;;;;;;;;;;;;11.12;68.87;103897.94;5036982;28;19924;-82
2022/12/19 07:19:03;;;;;;;;;;;;;;;11.11;68.44;103903.94;5046002;28;20404;-83
2022/12/19 07:21:29;;;;;;;;;;;;;;;11.12;68.84;103900.56;5029940;28;19928;-83
2022/12/19 07:23:55;;;;;;;;;;;;;;;11.11;68.94;103904.88;5044096;28;19921;-82
2022/12/19 07:26:21;;;;;;;;;;;;;;;11.07;69.44;103907.94;5038307;28;20378;-83
2022/12/19 07:28:47;;;;;;;;;;;;;;;10.91;68.59;103921.13;5045889;28;19917;-82
2022/12/19 07:31:12;;;;;;;;;;;;;;;11.00;68.76;103922.06;5043652;28;19917;-82
2022/12/19 07:33:38;;;;;;;;;;;;;;;11.05;69.00;103917.31;5039796;28;19923;-82
2022/12/19 07:36:03;;;;;;;;;;;;;;;10.94;68.79;103929.28;5036343;28;19935;-83
2022/12/19 07:38:29;;;;;;;;;;;;;;;10.83;67.94;103926.31;5037371;28;20013;-81
2022/12/19 07:40:54;;;;;;;;;;;;;;;10.77;69.23;103921.38;5049323;28;20396;-82
2022/12/19 07:43:20;;;;;;;;;;;;;;;10.79;69.11;103933.88;5039392;28;20386;-82
2022/12/19 07:45:45;;;;;;;;;;;;;;;10.96;68.69;103929.44;5037291;28;19991;-82
2022/12/19 07:48:10;;;;;;;;;;;;;;;11.00;68.18;103944.69;5032143;28;20388;-82
2022/12/19 07:50:36;;;;;;;;;;;;;;;10.93;68.50;103931.75;5043278;28;20334;-83
2022/12/19 07:53:01;;;;;;;;;;;;;;;10.89;68.61;103934.81;5042429;28;19923;-83
2022/12/19 07:55:27;;;;;;;;;;;;;;;10.81;68.22;103934.00;5040602;28;20417;-83
2022/12/19 07:57:54;;;;;;;;;;;;;;;10.89;68.49;103943.56;5039380;28;19956;-83
2022/12/19 08:00:20;;;;;;;;;;;;;;;10.90;68.65;103940.22;5045226;28;19920;-83
2022/12/19 08:02:45;;;;;;;;;;;;;;;10.89;68.93;103945.25;5036205;28;19999;-82
2022/12/19 08:05:11;;;;;;;;;;;;;;;10.93;69.20;103943.13;5043893;28;20016;-82
2022/12/19 08:07:36;;;;;;;;;;;;;;;10.96;69.39;103948.69;5047972;28;20000;-84
2022/12/19 08:10:02;;;;;;;;;;;;;;;10.96;68.92;103955.59;5050500;28;19923;-83
2022/12/19 08:12:27;;;;;;;;;;;;;;;10.80;69.31;103964.47;5047316;28;20374;-83
2022/12/19 08:14:52;;;;;;;;;;;;;;;10.90;68.66;103954.94;5048549;28;19913;-84
2022/12/19 08:17:18;;;;;;;;;;;;;;;10.94;69.21;103967.56;5043037;28;19913;-82
2022/12/19 08:19:43;;;;;;;;;;;;;;;10.74;69.36;103973.34;5045500;28;20279;-83
2022/12/19 08:22:09;;;;;;;;;;;;;;;10.85;68.78;103967.53;5023610;28;20595;-83
2022/12/19 08:24:35;;;;;;;;;;;;;;;10.82;68.09;103976.78;5046443;28;19925;-83
2022/12/19 08:27:01;;;;;;;;;;;;;;;10.72;68.80;103967.94;5044839;28;19917;-84
2022/12/19 08:29:26;;;;;;;;;;;;;;;10.70;68.26;103973.78;5042565;28;19928;-83
2022/12/19 08:31:52;;;;;;;;;;;;;;;10.74;68.38;103962.91;5043743;28;19917;-83
2022/12/19 08:34:17;;;;;;;;;;;;;;;10.59;69.07;103963.13;5041539;28;19921;-84
2022/12/19 08:36:42;;;;;;;;;;;;;;;10.77;68.13;103968.44;5036641;28;20325;-83
2022/12/19 08:39:08;;;;;;;;;;;;;;;10.61;69.15;103978.06;5037811;28;19921;-84
2022/12/19 08:41:33;;;;;;;;;;;;;;;10.65;68.51;103983.78;5035182;28;20318;-83
2022/12/19 08:43:59;;;;;;;;;;;;;;;10.56;69.02;103970.66;5032834;28;19921;-83
2022/12/19 08:46:25;;;;;;;;;;;;;;;10.68;68.55;103980.53;5034353;28;19913;-83
2022/12/19 08:48:50;;;;;;;;;;;;;;;10.73;68.29;103980.28;5035930;28;19916;-83
2022/12/19 08:51:16;;;;;;;;;;;;;;;10.72;68.11;103969.66;5041681;28;19921;-83
2022/12/19 08:53:42;;;;;;;;;;;;;;;10.67;68.54;103978.69;5047635;28;19913;-83
2022/12/19 08:56:11;;;;;;;;;;;;;;;10.59;68.92;103972.66;5045613;28;19921;-83
2022/12/19 08:58:37;;;;;;;;;;;;;;;10.68;68.33;103964.88;5045820;28;19924;-83
2022/12/19 09:01:07;;;;;;;;;;;;;;;10.74;67.98;103965.50;5045659;28;19913;-82
2022/12/19 09:03:33;;;;;;;;;;;;;;;10.79;68.27;103964.28;5039778;28;20354;-83
2022/12/19 09:05:59;;;;;;;;;;;;;;;10.67;68.20;103961.34;5046838;28;19956;-82
2022/12/19 09:08:25;;;;;;;;;;;;;;;10.65;68.17;103951.50;5039101;28;19970;-82
2022/12/19 09:10:55;;;;;;;;;;;;;;;10.67;67.90;103960.38;5047663;28;20398;-83
2022/12/19 09:13:21;;;;;;;;;;;;;;;10.63;68.15;103958.25;5044922;28;20459;-83
2022/12/19 09:15:46;;;;;;;;;;;;;;;10.59;68.21;103970.97;5043133;28;19917;-83
2022/12/19 09:18:12;;;;;;;;;;;;;;;10.49;68.77;103959.38;5040990;28;20321;-83
2022/12/19 09:20:37;;;;;;;;;;;;;;;10.60;68.20;103966.66;5048343;28;20377;-83
2022/12/19 09:23:02;;;;;;;;;;;;;;;10.66;68.22;103956.84;5047378;28;20440;-83
2022/12/19 09:25:28;;;;;;;;;;;;;;;10.74;68.12;103961.19;5043509;28;20302;-83
2022/12/19 09:27:53;;;;;;;;;;;;;;;10.73;68.84;103969.81;5047364;28;19917;-81
2022/12/19 09:30:24;;;;;;;;;;;;;;;10.69;68.27;103956.25;5045237;28;20529;-83
2022/12/19 09:32:54;;;;;;;;;;;;;;;10.72;68.76;103959.19;5029562;28;19967;-83
2022/12/19 09:35:20;;;;;;;;;;;;;;;10.69;67.89;103957.19;5043904;28;19955;-83
2022/12/19 09:37:48;;;;;;;;;;;;;;;10.67;67.96;103952.53;5029724;28;19960;-83
2022/12/19 09:40:15;;;;;;;;;;;;;;;10.63;68.17;103953.94;5041681;28;20401;-83
2022/12/19 09:42:49;;;;;;;;;;;;;;;10.63;68.56;103948.72;5046389;28;19974;-83
2022/12/19 09:45:23;;;;;;;;;;;;;;;10.49;68.66;103947.25;5026814;28;19920;-82
2022/12/19 09:47:49;;;;;;;;;;;;;;;10.64;68.73;103939.16;5050402;28;19912;-82
2022/12/19 09:50:34;;;;;;;;;;;;;;;10.66;68.28;103942.88;5057306;28;20295;-82
2022/12/19 09:53:03;;;;;;;;;;;;;;;10.53;68.21;103930.22;5073528;28;19912;-83
2022/12/19 09:55:32;;;;;;;;;;;;;;;10.66;68.15;103940.25;5053064;28;19916;-83
2022/12/19 09:58:10;;;;;;;;;;;;;;;10.43;68.48;103925.69;5054117;28;19913;-83
2022/12/19 10:00:42;;;;;;;;;;;;;;;10.61;68.56;103931.94;5053413;28;20011;-83
2022/12/19 10:03:08;;;;;;;;;;;;;;;10.55;68.14;103921.75;5065070;28;20397;-83
2022/12/19 10:05:45;;;;;;;;;;;;;;;10.41;68.51;103921.97;5067238;28;20015;-83
2022/12/19 10:08:30;;;;;;;;;;;;;;;10.54;68.37;103905.91;5050757;28;19916;-83
2022/12/19 10:11:05;;;;;;;;;;;;;;;10.51;68.60;103903.91;5069507;28;19959;-83
2022/12/19 10:13:33;;;;;;;;;;;;;;;10.54;68.32;103906.84;5067471;28;19939;-84
2022/12/19 10:16:08;;;;;;;;;;;;;;;10.61;68.61;103899.66;5062628;28;19916;-84
2022/12/19 10:18:41;;;;;;;;;;;;;;;10.41;68.37;103894.94;5062889;28;20062;-84
2022/12/19 10:21:07;;;;;;;;;;;;;;;10.42;67.84;103896.81;5038760;28;20309;-83
2022/12/19 10:23:51;;;;;;;;;;;;;;;10.55;68.32;103887.78;5067131;28;19928;-84
2022/12/19 10:26:22;;;;;;;;;;;;;;;10.40;68.38;103888.81;5069171;28;19976;-82
2022/12/19 10:29:00;;;;;;;;;;;;;;;10.27;68.88;103894.38;5034513;28;20402;-83
2022/12/19 10:31:46;;;;;;;;;;;;;;;10.34;68.01;103885.53;5070551;28;20530;-84
2022/12/19 10:34:11;;;;;;;;;;;;;;;10.39;67.97;103885.28;5058337;28;19917;-83
2022/12/19 10:36:46;;;;;;;;;;;;;;;10.39;68.52;103893.09;5067973;28;19913;-84
2022/12/19 10:39:31;;;;;;;;;;;;;;;10.27;68.29;103897.00;5042843;28;20007;-83
2022/12/19 10:42:01;;;;;;;;;;;;;;;10.41;68.27;103881.88;5055999;28;20291;-82
2022/12/19 10:44:27;;;;;;;;;;;;;;;10.30;68.21;103897.34;5054919;28;19917;-84
2022/12/19 10:46:52;;;;;;;;;;;;;;;10.32;68.00;103887.97;5042427;28;19916;-82
2022/12/19 10:49:27;;;;;;;;;;;;;;;10.33;68.17;103888.94;5054713;28;19920;-82
2022/12/19 10:52:02;;;;;;;;;;;;;;;10.26;68.45;103891.59;5042093;28;20097;-81
2022/12/19 10:54:40;;;;;;;;;;;;;;;10.23;68.20;103873.00;5054738;28;20300;-82
2022/12/19 10:57:14;;;;;;;;;;;;;;;10.21;68.92;103874.53;5069056;28;19913;-82
2022/12/19 10:59:40;;;;;;;;;;;;;;;10.33;68.36;103863.72;5068915;28;20373;-84
2022/12/19 11:02:11;;;;;;;;;;;;;;;10.42;68.17;103870.69;5051032;28;19927;-82
2022/12/19 11:04:36;;;;;;;;;;;;;;;10.37;67.99;103878.00;5045349;28;19929;-82
2022/12/19 11:07:02;;;;;;;;;;;;;;;10.38;68.38;103870.34;5042761;28;19916;-84
2022/12/19 11:09:31;;;;;;;;;;;;;;;10.51;67.64;103875.16;5054955;28;20372;-84
2022/12/19 11:11:56;;;;;;;;;;;;;;;10.55;68.18;103869.47;5038768;28;19924;-84
2022/12/19 11:14:26;;;;;;;;;;;;;;;10.42;69.02;103874.22;5055101;28;19913;-83
2022/12/19 11:16:51;;;;;;;;;;;;;;;10.45;68.34;103870.97;5019532;28;20394;-83
2022/12/19 11:19:23;;;;;;;;;;;;;;;10.55;68.03;103872.09;5037257;28;19917;-82
2022/12/19 11:21:48;;;;;;;;;;;;;;;10.53;67.83;103863.19;5055275;28;19924;-83
2022/12/19 11:24:22;;;;;;;;;;;;;;;10.41;69.18;103867.13;5024481;28;20316;-83
2022/12/19 11:26:48;;;;;;;;;;;;;;;10.35;68.79;103861.25;5050433;28;19916;-82
2022/12/19 11:29:17;;;;;;;;;;;;;;;10.32;68.92;103855.72;5038725;28;19917;-82
2022/12/19 11:31:42;;;;;;;;;;;;;;;10.42;68.65;103860.22;5055281;28;20324;-82
2022/12/19 11:34:17;;;;;;;;;;;;;;;10.37;69.09;103852.84;5040276;28;19913;-82
2022/12/19 11:37:06;;;;;;;;;;;;;;;10.37;68.85;103851.88;5037164;28;20381;-82
2022/12/19 11:39:37;;;;;;;;;;;;;;;10.34;69.03;103855.09;5044538;28;20393;-83
2022/12/19 11:42:02;;;;;;;;;;;;;;;10.37;69.10;103846.66;5047706;28;19913;-82
2022/12/19 11:44:46;;;;;;;;;;;;;;;10.40;68.33;103854.84;5032772;28;20381;-83
2022/12/19 11:47:31;;;;;;;;;;;;;;;10.36;68.64;103848.34;5036316;28;19924;-83
2022/12/19 11:50:11;;;;;;;;;;;;;;;10.32;69.37;103850.50;5037328;28;20428;-82
2022/12/19 11:52:40;;;;;;;;;;;;;;;10.30;69.18;103844.19;5041734;28;19916;-82
2022/12/19 11:55:14;;;;;;;;;;;;;;;10.34;68.97;103842.03;5043191;28;19913;-82
2022/12/19 11:57:40;;;;;;;;;;;;;;;10.38;69.02;103840.69;5041158;28;19948;-82
2022/12/19 12:00:10;;;;;;;;;;;;;;;10.34;69.49;103836.81;5032291;28;20441;-83
2022/12/19 12:02:54;;;;;;;;;;;;;;;10.35;69.52;103842.97;5034339;28;20011;-83
2022/12/19 12:05:36;;;;;;;;;;;;;;;10.47;69.13;103836.41;5033717;28;19917;-82
2022/12/19 12:08:01;;;;;;;;;;;;;;;10.41;69.18;103829.63;5034791;28;20378;-83
2022/12/19 12:10:27;;;;;;;;;;;;;;;10.45;68.78;103824.88;5032471;28;20000;-83
2022/12/19 12:13:04;;;;;;;;;;;;;;;10.47;68.46;103836.41;5030627;28;19967;-83
2022/12/19 12:15:48;;;;;;;;;;;;;;;10.36;69.56;103826.53;5035079;28;19917;-84
2022/12/19 12:18:17;;;;;;;;;;;;;;;10.37;69.24;103825.75;5046647;28;19913;-83
2022/12/19 12:21:02;;;;;;;;;;;;;;;10.45;68.75;103831.78;5040960;28;20409;-83
2022/12/19 12:23:28;;;;;;;;;;;;;;;10.44;69.05;103827.34;5025049;28;20353;-82
2022/12/19 12:25:54;;;;;;;;;;;;;;;10.41;69.28;103838.38;5042831;28;19920;-83
2022/12/19 12:28:34;;;;;;;;;;;;;;;10.47;69.11;103833.78;5045986;28;19913;-83
2022/12/19 12:31:07;;;;;;;;;;;;;;;10.38;69.25;103831.16;5042114;28;19921;-83
2022/12/19 12:33:35;;;;;;;;;;;;;;;10.37;68.85;103841.44;5041400;28;19919;-83
2022/12/19 12:36:01;;;;;;;;;;;;;;;10.46;69.14;103831.97;5039643;28;19936;-82
2022/12/19 12:38:44;;;;;;;;;;;;;;;10.47;68.76;103832.88;5029252;28;20402;-83
2022/12/19 12:44:12;;;;;;;;;;;;;;;10.44;68.72;103837.81;5039933;28;20314;-83
2022/12/19 12:46:47;;;;;;;;;;;;;;;10.48;68.50;103830.44;5042902;28;19991;-83
2022/12/19 12:49:33;;;;;;;;;;;;;;;10.50;68.51;103834.13;5047745;28;19959;-83